createdAt,value
2023-05-09T00:00:56.335Z,100847.19
2023-05-09T00:03:23.995Z,100848.94
2023-05-09T00:05:51.724Z,100845.44
2023-05-09T00:08:19.470Z,100842.81
2023-05-09T00:10:47.381Z,100848.06
2023-05-09T00:13:14.776Z,100842.84
2023-05-09T00:15:43.042Z,100840.22
2023-05-09T00:18:10.186Z,100842.84
2023-05-09T00:20:38.129Z,100836.72
2023-05-09T00:23:06.325Z,100840.22
2023-05-09T00:25:34.342Z,100844.56
2023-05-09T00:28:02.861Z,100845.47
2023-05-09T00:30:30.101Z,100845.47
2023-05-09T00:32:58.656Z,100841.97
2023-05-09T00:35:27.120Z,100843.72
2023-05-09T00:37:54.912Z,100835.88
2023-05-09T00:40:23.035Z,100847.22
2023-05-09T00:42:50.102Z,100840.22
2023-05-09T00:45:17.464Z,100835.88
2023-05-09T00:47:44.558Z,100842.84
2023-05-09T00:50:11.696Z,100840.22
2023-05-09T00:52:39.165Z,100837.59
2023-05-09T00:55:08.602Z,100840.22
2023-05-09T00:57:36.774Z,100844.59
2023-05-09T01:00:11.125Z,100844.63
2023-05-09T01:02:38.322Z,100842.88
2023-05-09T01:05:06.033Z,100842.88
2023-05-09T01:07:46.162Z,100841.97
2023-05-09T01:10:18.837Z,100845.50
2023-05-09T01:12:48.723Z,100839.34
2023-05-09T01:15:22.758Z,100837.63
2023-05-09T01:18:04.192Z,100842.84
2023-05-09T01:20:38.408Z,100842.84
2023-05-09T01:23:44.348Z,100841.09
2023-05-09T01:26:55.248Z,100844.59
2023-05-09T01:29:35.609Z,100847.22
2023-05-09T01:32:15.937Z,100845.44
2023-05-09T01:34:45.796Z,100852.41
2023-05-09T01:37:18.926Z,100853.28
2023-05-09T01:39:52.464Z,100852.38
2023-05-09T01:42:21.657Z,100851.50
2023-05-09T01:44:49.978Z,100851.44
2023-05-09T01:47:20.126Z,100852.28
2023-05-09T01:49:48.436Z,100847.94
2023-05-09T01:52:19.396Z,100838.25
2023-05-09T01:54:46.901Z,100840.81
2023-05-09T01:57:15.123Z,100839.91
2023-05-09T01:59:44.708Z,100849.50
2023-05-09T02:02:12.672Z,100845.09
2023-05-09T02:04:42.612Z,100834.53
2023-05-09T02:07:12.267Z,100838.88
2023-05-09T02:09:39.643Z,100830.06
2023-05-09T02:12:07.576Z,100830.06
2023-05-09T02:14:35.701Z,100838.75
2023-05-09T02:17:07.304Z,100833.47
2023-05-09T02:19:35.920Z,100838.69
2023-05-09T02:22:05.354Z,100838.69
2023-05-09T02:24:34.540Z,100834.25
2023-05-09T02:27:04.769Z,100830.72
2023-05-09T02:29:43.419Z,100840.34
2023-05-09T02:32:17.293Z,100838.56
2023-05-09T02:34:47.331Z,100834.13
2023-05-09T02:37:15.144Z,100834.09
2023-05-09T02:39:42.617Z,100834.09
2023-05-09T02:42:12.577Z,100837.56
2023-05-09T02:44:40.032Z,100830.50
2023-05-09T02:47:07.903Z,100831.41
2023-05-09T02:49:37.229Z,100832.25
2023-05-09T02:52:05.790Z,100829.59
2023-05-09T02:54:33.981Z,100842.75
2023-05-09T02:57:01.713Z,100840.06
2023-05-09T02:59:29.215Z,100839.16
2023-05-09T03:02:00.315Z,100838.25
2023-05-09T03:04:28.894Z,100839.06
2023-05-09T03:06:56.390Z,100841.63
2023-05-09T03:09:27.048Z,100844.22
2023-05-09T03:11:57.499Z,100838.03
2023-05-09T03:14:26.333Z,100844.09
2023-05-09T03:16:55.930Z,100843.13
2023-05-09T03:19:33.814Z,100845.69
2023-05-09T03:22:01.638Z,100849.94
2023-05-09T03:24:31.639Z,100849.00
2023-05-09T03:26:59.778Z,100850.69
2023-05-09T03:29:28.110Z,100854.06
2023-05-09T03:31:56.101Z,100852.22
2023-05-09T03:34:24.106Z,100852.06
2023-05-09T03:36:52.029Z,100856.34
2023-05-09T03:39:19.762Z,100856.16
2023-05-09T03:41:49.687Z,100858.69
2023-05-09T03:44:18.067Z,100863.81
2023-05-09T03:46:45.438Z,100858.56
2023-05-09T03:49:13.116Z,100857.41
2023-05-09T03:51:42.152Z,100864.34
2023-05-09T03:54:15.042Z,100859.53
2023-05-09T03:56:43.545Z,100861.81
2023-05-09T03:59:11.445Z,100864.81
2023-05-09T04:01:40.434Z,100863.47
2023-05-09T04:04:10.190Z,100867.88
2023-05-09T04:06:38.267Z,100865.06
2023-05-09T04:09:10.376Z,100871.72
2023-05-09T04:11:37.629Z,100860.22
2023-05-09T04:14:10.861Z,100864.13
2023-05-09T04:16:38.724Z,100863.16
2023-05-09T04:19:09.709Z,100868.50
2023-05-09T04:21:37.922Z,100872.09
2023-05-09T04:24:06.645Z,100869.41
2023-05-09T04:26:40.709Z,100881.88
2023-05-09T04:29:12.980Z,100875.59
2023-05-09T04:31:41.383Z,100873.59
2023-05-09T04:34:12.456Z,100868.25
2023-05-09T04:36:39.808Z,100871.19
2023-05-09T04:39:08.489Z,100878.84
2023-05-09T04:41:37.983Z,100876.59
2023-05-09T04:44:05.497Z,100878.34
2023-05-09T04:46:32.866Z,100877.75
2023-05-09T04:48:59.954Z,100880.31
2023-05-09T04:51:26.998Z,100879.41
2023-05-09T04:53:54.598Z,100887.19
2023-05-09T04:56:27.236Z,100881.59
2023-05-09T04:58:54.974Z,100887.03
2023-05-09T05:01:22.188Z,100883.38
2023-05-09T05:03:50.518Z,100886.78
2023-05-09T05:06:18.215Z,100881.06
2023-05-09T05:08:46.175Z,100886.00
2023-05-09T05:11:13.875Z,100882.31
2023-05-09T05:13:41.174Z,100875.44
2023-05-09T05:16:08.591Z,100883.88
2023-05-09T05:18:36.189Z,100885.25
2023-05-09T05:21:03.530Z,100877.88
2023-05-09T05:23:31.014Z,100881.25
2023-05-09T05:25:58.854Z,100875.59
2023-05-09T05:28:26.603Z,100889.94
2023-05-09T05:30:53.705Z,100877.75
2023-05-09T05:33:20.692Z,100879.91
2023-05-09T05:35:49.161Z,100888.75
2023-05-09T05:38:16.468Z,100887.41
2023-05-09T05:40:48.812Z,100875.81
2023-05-09T05:43:16.604Z,100870.34
2023-05-09T05:45:43.860Z,100874.66
2023-05-09T05:48:16.693Z,100887.72
2023-05-09T05:50:44.236Z,100873.69
2023-05-09T05:53:15.472Z,100874.22
2023-05-09T05:55:46.527Z,100876.81
2023-05-09T05:58:14.208Z,100873.34
2023-05-09T06:00:41.624Z,100880.22
2023-05-09T06:03:14.747Z,100875.97
2023-05-09T06:05:49.154Z,100873.75
2023-05-09T06:08:17.394Z,100877.16
2023-05-09T06:10:44.667Z,100878.59
2023-05-09T06:13:12.015Z,100874.00
2023-05-09T06:15:43.453Z,100872.28
2023-05-09T06:18:11.792Z,100875.34
2023-05-09T06:20:39.476Z,100876.47
2023-05-09T06:23:07.347Z,100878.63
2023-05-09T06:25:35.174Z,100875.53
2023-05-09T06:28:03.340Z,100872.31
2023-05-09T06:30:31.155Z,100858.56
2023-05-09T06:32:59.466Z,100859.78
2023-05-09T06:35:27.355Z,100870.63
2023-05-09T06:37:55.230Z,100867.19
2023-05-09T06:40:22.334Z,100867.97
2023-05-09T06:42:49.620Z,100868.03
2023-05-09T06:45:20.176Z,100859.88
2023-05-09T06:47:48.531Z,100862.25
2023-05-09T06:50:16.705Z,100859.34
2023-05-09T06:52:44.759Z,100864.78
2023-05-09T06:55:13.047Z,100867.16
2023-05-09T06:57:41.261Z,100856.22
2023-05-09T07:00:09.900Z,100863.03
2023-05-09T07:02:42.410Z,100858.38
2023-05-09T07:05:11.186Z,100856.84
2023-05-09T07:07:39.168Z,100851.75
2023-05-09T07:10:12.033Z,100847.41
2023-05-09T07:12:41.098Z,100845.81
2023-05-09T07:15:10.224Z,100844.41
2023-05-09T07:17:37.832Z,100842.97
2023-05-09T07:20:06.341Z,100845.72
2023-05-09T07:22:36.369Z,100843.03
2023-05-09T07:25:07.810Z,100838.53
2023-05-09T07:27:37.175Z,100829.34
2023-05-09T07:30:07.132Z,100834.13
2023-05-09T07:32:34.849Z,100829.81
2023-05-09T07:35:03.165Z,100822.34
2023-05-09T07:37:31.020Z,100834.78
2023-05-09T07:39:59.612Z,100832.75
2023-05-09T07:42:27.137Z,100826.09
2023-05-09T07:44:55.791Z,100828.75
2023-05-09T07:47:25.246Z,100811.81
2023-05-09T07:49:53.172Z,100822.84
2023-05-09T07:52:22.351Z,100818.75
2023-05-09T07:54:50.311Z,100809.31
2023-05-09T07:57:18.322Z,100816.63
2023-05-09T07:59:45.879Z,100806.31
2023-05-09T08:02:13.419Z,100807.88
2023-05-09T08:04:41.901Z,100818.59
2023-05-09T08:07:12.896Z,100808.44
2023-05-09T08:09:41.103Z,100809.84
2023-05-09T08:12:09.057Z,100818.03
2023-05-09T08:14:37.092Z,100809.91
2023-05-09T08:17:05.118Z,100800.81
2023-05-09T08:19:33.582Z,100812.22
2023-05-09T08:22:01.064Z,100806.94
2023-05-09T08:24:28.757Z,100805.25
2023-05-09T08:26:57.423Z,100800.09
2023-05-09T08:29:24.928Z,100800.44
2023-05-09T08:31:53.285Z,100796.31
2023-05-09T08:34:21.377Z,100793.56
2023-05-09T08:36:48.830Z,100802.94
2023-05-09T08:39:17.187Z,100783.75
2023-05-09T08:41:45.315Z,100795.03
2023-05-09T08:44:13.705Z,100790.16
2023-05-09T08:46:45.279Z,100788.81
2023-05-09T08:49:13.141Z,100776.34
2023-05-09T08:51:45.503Z,100777.97
2023-05-09T08:54:13.276Z,100777.66
2023-05-09T08:56:42.067Z,100777.78
2023-05-09T08:59:10.718Z,100784.88
2023-05-09T09:01:39.274Z,100793.88
2023-05-09T09:04:08.530Z,100787.56
2023-05-09T09:06:37.156Z,100778.69
2023-05-09T09:09:06.695Z,100782.16
2023-05-09T09:11:36.980Z,100769.41
2023-05-09T09:14:14.042Z,100774.44
2023-05-09T09:16:45.421Z,100766.31
2023-05-09T09:19:17.673Z,100771.00
2023-05-09T09:21:51.369Z,100773.75
2023-05-09T09:24:23.389Z,100765.56
2023-05-09T09:26:52.141Z,100766.19
2023-05-09T09:29:23.225Z,100764.28
2023-05-09T09:31:55.663Z,100765.75
2023-05-09T09:34:24.373Z,100769.72
2023-05-09T09:36:52.996Z,100761.19
2023-05-09T09:39:22.703Z,100769.72
2023-05-09T09:41:51.175Z,100755.72
2023-05-09T09:44:21.848Z,100759.00
2023-05-09T09:46:51.237Z,100755.16
2023-05-09T09:49:21.999Z,100757.88
2023-05-09T09:51:54.732Z,100764.22
2023-05-09T09:54:26.950Z,100759.91
2023-05-09T09:56:57.208Z,100757.63
2023-05-09T09:59:28.064Z,100751.44
2023-05-09T10:02:07.572Z,100761.13
2023-05-09T10:04:39.532Z,100767.28
2023-05-09T10:07:14.345Z,100744.16
2023-05-09T10:09:44.301Z,100748.78
2023-05-09T10:12:15.019Z,100750.28
2023-05-09T10:14:48.529Z,100736.16
2023-05-09T10:17:18.422Z,100737.97
2023-05-09T10:19:48.177Z,100741.19
2023-05-09T10:22:20.196Z,100740.75
2023-05-09T10:25:02.580Z,100731.97
2023-05-09T10:27:32.824Z,100733.63
2023-05-09T10:30:08.838Z,100726.84
2023-05-09T10:33:03.307Z,100730.47
2023-05-09T10:35:37.293Z,100721.91
2023-05-09T10:38:05.403Z,100720.88
2023-05-09T10:40:34.925Z,100713.13
2023-05-09T10:43:02.798Z,100710.19
2023-05-09T10:45:31.037Z,100715.75
2023-05-09T10:47:59.519Z,100716.50
2023-05-09T10:50:27.839Z,100710.41
2023-05-09T10:53:05.245Z,100704.66
2023-05-09T10:55:48.780Z,100699.75
2023-05-09T10:58:20.988Z,100697.84
2023-05-09T11:00:54.658Z,100697.66
2023-05-09T11:03:25.885Z,100705.66
2023-05-09T11:05:57.341Z,100702.88
2023-05-09T11:08:30.906Z,100698.94
2023-05-09T11:11:02.613Z,100710.75
2023-05-09T11:13:39.081Z,100716.50
2023-05-09T11:16:12.992Z,100693.59
2023-05-09T11:18:53.208Z,100684.81
2023-05-09T11:21:21.755Z,100681.81
2023-05-09T11:23:51.853Z,100683.75
2023-05-09T11:26:24.146Z,100685.66
2023-05-09T11:28:54.681Z,100686.31
2023-05-09T11:31:22.914Z,100679.84
2023-05-09T11:33:56.909Z,100683.25
2023-05-09T11:36:34.012Z,100680.19
2023-05-09T11:39:12.345Z,100661.25
2023-05-09T11:41:50.235Z,100668.13
2023-05-09T11:44:20.789Z,100661.75
2023-05-09T11:46:50.818Z,100674.91
2023-05-09T11:49:20.009Z,100665.78
2023-05-09T11:51:46.947Z,100670.09
2023-05-09T11:54:15.582Z,100671.84
2023-05-09T11:56:43.495Z,100660.50
2023-05-09T11:59:13.564Z,100665.00
2023-05-09T12:01:41.024Z,100661.91
2023-05-09T12:04:09.636Z,100656.78
2023-05-09T12:06:38.279Z,100654.31
2023-05-09T12:09:06.710Z,100657.00
2023-05-09T12:11:35.183Z,100644.78
2023-05-09T12:14:02.838Z,100647.31
2023-05-09T12:16:31.282Z,100635.47
2023-05-09T12:18:58.675Z,100629.16
2023-05-09T12:21:26.285Z,100627.44
2023-05-09T12:23:56.523Z,100617.16
2023-05-09T12:26:24.205Z,100623.56
2023-05-09T12:28:52.277Z,100617.66
2023-05-09T12:31:21.211Z,100618.53
2023-05-09T12:33:49.012Z,100620.81
2023-05-09T12:36:17.043Z,100624.03
2023-05-09T12:38:55.653Z,100622.75
2023-05-09T12:43:56.095Z,100626.91
2023-05-09T12:46:23.970Z,100623.50
2023-05-09T12:48:51.914Z,100625.69
2023-05-09T12:51:21.234Z,100627.00
2023-05-09T12:53:49.614Z,100629.66
2023-05-09T12:56:20.138Z,100625.66
2023-05-09T12:58:55.316Z,100623.94
2023-05-09T13:01:30.039Z,100628.72
2023-05-09T13:04:06.786Z,100632.31
2023-05-09T13:06:35.021Z,100624.66
2023-05-09T13:09:06.609Z,100625.38
2023-05-09T13:11:34.398Z,100622.88
2023-05-09T13:14:04.626Z,100622.56
2023-05-09T13:16:32.250Z,100625.09
2023-05-09T13:19:01.868Z,100617.44
2023-05-09T13:21:29.532Z,100620.03
2023-05-09T13:23:57.301Z,100620.81
2023-05-09T13:26:24.531Z,100621.91
2023-05-09T13:28:52.525Z,100614.94
2023-05-09T13:31:20.229Z,100615.63
2023-05-09T13:33:50.014Z,100614.38
2023-05-09T13:36:20.379Z,100602.25
2023-05-09T13:38:48.051Z,100611.22
2023-05-09T13:41:20.557Z,100606.91
2023-05-09T13:43:48.083Z,100613.06
2023-05-09T13:46:16.013Z,100610.38
2023-05-09T13:48:44.755Z,100619.31
2023-05-09T13:51:12.421Z,100607.44
2023-05-09T13:53:39.809Z,100608.84
2023-05-09T13:56:09.967Z,100608.69
2023-05-09T13:58:38.148Z,100607.53
2023-05-09T14:01:08.799Z,100614.59
2023-05-09T14:03:36.727Z,100609.03
2023-05-09T14:06:04.637Z,100610.66
2023-05-09T14:08:32.538Z,100610.72
2023-05-09T14:11:00.556Z,100614.34
2023-05-09T14:13:28.907Z,100605.03
2023-05-09T14:15:56.268Z,100600.53
2023-05-09T14:18:23.901Z,100601.47
2023-05-09T14:20:51.635Z,100604.16
2023-05-09T14:23:19.707Z,100603.88
2023-05-09T14:25:50.686Z,100603.34
2023-05-09T14:28:18.498Z,100593.34
2023-05-09T14:30:45.796Z,100602.41
2023-05-09T14:33:13.484Z,100598.09
2023-05-09T14:35:41.654Z,100599.13
2023-05-09T14:38:10.259Z,100593.63
2023-05-09T14:40:37.655Z,100600.47
2023-05-09T14:43:06.283Z,100595.66
2023-05-09T14:45:34.338Z,100601.63
2023-05-09T14:48:05.911Z,100596.06
2023-05-09T14:50:34.653Z,100599.88
2023-05-09T14:53:04.057Z,100602.03
2023-05-09T14:55:32.056Z,100596.34
2023-05-09T14:58:00.000Z,100593.75
2023-05-09T15:00:28.948Z,100588.28
2023-05-09T15:02:57.160Z,100591.31
2023-05-09T15:05:24.727Z,100595.63
2023-05-09T15:07:52.529Z,100596.22
2023-05-09T15:10:20.185Z,100599.31
2023-05-09T15:12:48.653Z,100600.69
2023-05-09T15:15:19.512Z,100591.69
2023-05-09T15:17:47.766Z,100598.03
2023-05-09T15:20:16.494Z,100593.28
2023-05-09T15:22:45.505Z,100593.78
2023-05-09T15:25:13.206Z,100588.97
2023-05-09T15:27:41.031Z,100586.63
2023-05-09T15:30:10.457Z,100592.06
2023-05-09T15:32:41.694Z,100583.50
2023-05-09T15:35:09.675Z,100594.88
2023-05-09T15:37:38.495Z,100592.13
2023-05-09T15:40:06.515Z,100586.34
2023-05-09T15:42:34.348Z,100583.16
2023-05-09T15:45:01.951Z,100580.25
2023-05-09T15:47:29.719Z,100585.34
2023-05-09T15:49:57.855Z,100570.41
2023-05-09T15:52:25.561Z,100575.81
2023-05-09T15:54:56.209Z,100574.59
2023-05-09T15:57:25.364Z,100577.25
2023-05-09T15:59:56.517Z,100578.72
2023-05-09T16:02:24.316Z,100576.97
2023-05-09T16:04:52.302Z,100580.59
2023-05-09T16:07:20.884Z,100584.97
2023-05-09T16:09:50.736Z,100580.66
2023-05-09T16:12:18.170Z,100583.38
2023-05-09T16:14:45.908Z,100572.50
2023-05-09T16:17:13.164Z,100575.66
2023-05-09T16:19:40.987Z,100572.84
2023-05-09T16:22:08.418Z,100574.28
2023-05-09T16:24:37.420Z,100572.03
2023-05-09T16:27:05.587Z,100567.44
2023-05-09T16:29:33.642Z,100573.09
2023-05-09T16:32:01.591Z,100572.63
2023-05-09T16:34:29.526Z,100572.38
2023-05-09T16:36:56.977Z,100573.44
2023-05-09T16:39:24.366Z,100578.25
2023-05-09T16:41:52.145Z,100571.56
2023-05-09T16:44:20.117Z,100575.56
2023-05-09T16:46:48.185Z,100579.19
2023-05-09T16:49:15.995Z,100570.94
2023-05-09T16:51:46.283Z,100576.53
2023-05-09T16:54:14.482Z,100580.69
2023-05-09T16:56:42.818Z,100583.59
2023-05-09T16:59:10.084Z,100581.16
2023-05-09T17:01:38.152Z,100587.72
2023-05-09T17:04:07.351Z,100583.69
2023-05-09T17:06:35.091Z,100589.28
2023-05-09T17:09:02.478Z,100585.53
2023-05-09T17:11:29.792Z,100585.44
2023-05-09T17:13:57.419Z,100581.22
2023-05-09T17:16:25.978Z,100586.91
2023-05-09T17:18:54.569Z,100585.44
2023-05-09T17:21:23.352Z,100589.47
2023-05-09T17:23:54.491Z,100586.41
2023-05-09T17:26:22.665Z,100584.31
2023-05-09T17:28:50.407Z,100583.78
2023-05-09T17:31:17.983Z,100587.53
2023-05-09T17:33:45.427Z,100596.78
2023-05-09T17:36:13.572Z,100596.25
2023-05-09T17:38:41.452Z,100599.38
2023-05-09T17:41:08.538Z,100599.56
2023-05-09T17:43:36.335Z,100595.56
2023-05-09T17:46:05.771Z,100599.41
2023-05-09T17:48:34.210Z,100601.56
2023-05-09T17:51:01.474Z,100602.72
2023-05-09T17:53:28.959Z,100600.41
2023-05-09T17:55:58.574Z,100602.53
2023-05-09T17:58:27.692Z,100605.50
2023-05-09T18:00:59.847Z,100609.22
2023-05-09T18:03:32.383Z,100610.47
2023-05-09T18:06:02.438Z,100613.53
2023-05-09T18:08:30.057Z,100607.63
2023-05-09T18:10:58.068Z,100607.78
2023-05-09T18:13:25.626Z,100620.38
2023-05-09T18:15:55.553Z,100613.56
2023-05-09T18:18:23.304Z,100613.72
2023-05-09T18:20:50.690Z,100611.25
2023-05-09T18:23:18.140Z,100613.06
2023-05-09T18:25:45.773Z,100615.81
2023-05-09T18:28:12.893Z,100617.63
2023-05-09T18:30:40.732Z,100613.41
2023-05-09T18:33:08.689Z,100620.59
2023-05-09T18:35:35.889Z,100622.47
2023-05-09T18:38:03.052Z,100624.31
2023-05-09T18:40:30.928Z,100626.19
2023-05-09T18:42:58.135Z,100624.63
2023-05-09T18:45:25.719Z,100624.91
2023-05-09T18:47:53.267Z,100619.91
2023-05-09T18:50:20.783Z,100620.09
2023-05-09T18:52:47.932Z,100626.41
2023-05-09T18:55:16.133Z,100631.84
2023-05-09T18:57:43.596Z,100630.25
2023-05-09T19:00:11.646Z,100631.28
2023-05-09T19:02:39.884Z,100621.84
2023-05-09T19:05:10.077Z,100616.72
2023-05-09T19:07:39.664Z,100626.53
2023-05-09T19:10:10.815Z,100617.88
2023-05-09T19:12:38.210Z,100616.19
2023-05-09T19:15:06.258Z,100625.06
2023-05-09T19:17:34.003Z,100618.97
2023-05-09T19:20:02.866Z,100628.69
2023-05-09T19:22:30.620Z,100622.56
2023-05-09T19:24:59.091Z,100615.50
2023-05-09T19:27:26.515Z,100614.59
2023-05-09T19:29:54.257Z,100618.06
2023-05-09T19:32:21.705Z,100617.22
2023-05-09T19:34:48.810Z,100613.75
2023-05-09T19:37:16.173Z,100611.22
2023-05-09T19:39:44.021Z,100616.53
2023-05-09T19:42:11.540Z,100617.41
2023-05-09T19:44:40.631Z,100614.91
2023-05-09T19:47:09.277Z,100610.66
2023-05-09T19:49:36.470Z,100616.97
2023-05-09T19:52:03.728Z,100615.25
2023-05-09T19:54:32.149Z,100615.34
2023-05-09T19:56:59.505Z,100618.97
2023-05-09T19:59:27.035Z,100608.53
2023-05-09T20:01:54.151Z,100609.53
2023-05-09T20:04:22.148Z,100612.28
2023-05-09T20:06:49.248Z,100608.97
2023-05-09T20:09:21.089Z,100606.50
2023-05-09T20:11:48.714Z,100611.00
2023-05-09T20:14:15.892Z,100606.75
2023-05-09T20:16:44.216Z,100605.09
2023-05-09T20:19:14.999Z,100603.41
2023-05-09T20:21:42.235Z,100601.72
2023-05-09T20:24:09.694Z,100605.28
2023-05-09T20:26:36.974Z,100606.19
2023-05-09T20:29:03.896Z,100599.22
2023-05-09T20:31:31.982Z,100597.47
2023-05-09T20:33:59.564Z,100601.00
2023-05-09T20:36:28.196Z,100602.72
2023-05-09T20:38:56.638Z,100605.38
2023-05-09T20:41:27.224Z,100607.16
2023-05-09T20:43:54.520Z,100617.63
2023-05-09T20:46:21.807Z,100613.28
2023-05-09T20:48:49.016Z,100611.53
2023-05-09T20:51:16.251Z,100601.91
2023-05-09T20:53:43.308Z,100605.41
2023-05-09T20:56:10.755Z,100601.03
2023-05-09T20:58:37.918Z,100602.78
2023-05-09T21:01:05.005Z,100602.78
2023-05-09T21:03:32.537Z,100593.19
2023-05-09T21:05:59.754Z,100594.06
2023-05-09T21:08:27.007Z,100589.72
2023-05-09T21:10:54.579Z,100598.44
2023-05-09T21:13:21.697Z,100593.19
2023-05-09T21:15:50.551Z,100594.94
2023-05-09T21:18:17.725Z,100586.25
2023-05-09T21:20:45.681Z,100593.22
2023-05-09T21:23:13.031Z,100592.31
2023-05-09T21:25:40.201Z,100594.06
2023-05-09T21:28:07.156Z,100594.03
2023-05-09T21:30:34.245Z,100591.41
2023-05-09T21:33:01.661Z,100590.53
2023-05-09T21:35:28.884Z,100585.28
2023-05-09T21:37:55.791Z,100580.91
2023-05-09T21:40:23.151Z,100580.03
2023-05-09T21:42:50.391Z,100580.91
2023-05-09T21:45:19.009Z,100578.22
2023-05-09T21:47:46.345Z,100579.09
2023-05-09T21:50:14.113Z,100579.91
2023-05-09T21:52:41.684Z,100572.00
2023-05-09T21:55:09.697Z,100570.25
2023-05-09T21:57:36.795Z,100572.00
2023-05-09T22:00:05.756Z,100572.84
2023-05-09T22:02:43.034Z,100574.56
2023-05-09T22:05:11.148Z,100571.91
2023-05-09T22:07:38.332Z,100571.88
2023-05-09T22:10:06.446Z,100569.22
2023-05-09T22:12:33.491Z,100569.22
2023-05-09T22:15:00.653Z,100563.97
2023-05-09T22:17:28.053Z,100565.69
2023-05-09T22:19:55.274Z,100565.69
2023-05-09T22:22:22.586Z,100564.81
2023-05-09T22:24:49.894Z,100570.84
2023-05-09T22:27:16.887Z,100563.81
2023-05-09T22:29:44.077Z,100554.22
2023-05-09T22:32:11.825Z,100558.53
2023-05-09T22:34:39.105Z,100564.59
2023-05-09T22:37:06.384Z,100556.78
2023-05-09T22:39:33.475Z,100557.63
2023-05-09T22:42:02.578Z,100551.56
2023-05-09T22:44:29.870Z,100552.44
2023-05-09T22:46:56.851Z,100548.97
2023-05-09T22:49:24.340Z,100549.81
2023-05-09T22:51:51.619Z,100549.81
2023-05-09T22:54:21.695Z,100548.06
2023-05-09T22:56:48.653Z,100541.97
2023-05-09T22:59:15.630Z,100536.75
2023-05-09T23:01:42.871Z,100542.84
2023-05-09T23:04:10.031Z,100540.28
2023-05-09T23:06:37.169Z,100545.50
2023-05-09T23:09:04.429Z,100542.03
2023-05-09T23:11:31.416Z,100534.22
2023-05-09T23:13:58.479Z,100529.88
2023-05-09T23:16:25.563Z,100529.06
2023-05-09T23:18:53.060Z,100527.34
2023-05-09T23:21:20.373Z,100529.97
2023-05-09T23:23:47.474Z,100524.78
2023-05-09T23:26:16.038Z,100526.53
2023-05-09T23:28:43.139Z,100519.63
2023-05-09T23:31:10.720Z,100514.44
2023-05-09T23:33:37.754Z,100517.13
2023-05-09T23:36:05.586Z,100511.06
2023-05-09T23:38:32.795Z,100511.97
2023-05-09T23:41:01.393Z,100515.47
2023-05-09T23:43:29.208Z,100516.38
2023-05-09T23:45:59.544Z,100514.66
2023-05-09T23:48:27.090Z,100515.59
2023-05-09T23:50:54.198Z,100509.50
2023-05-09T23:53:21.437Z,100507.75
2023-05-09T23:55:48.971Z,100512.09
2023-05-09T23:58:18.534Z,100516.47
